Terminal Aerodrome Forecast
Issued by NWS

Home | Current Version | Previous Version | Text Only | Print | Product List | Glossary On
Versions: 1 2 3 4 5 6 7 8 9 10 11 12 13 14 15 16 17
008
FTUS46 KLOX 101751
TAFVNY
TAF
KVNY 101751Z 1018/1118 VRB03KT 2SM BR BKN005
     FM101900 VRB03KT 4SM HZ SCT008
     FM102100 16006KT P6SM SCT012
     FM110300 VRB03KT P6SM OVC008
     FM110900 VRB03KT 4SM BR VCSH OVC006=

USA.gov is the U.S. government's official web portal to all federal, state and local government web resources and services.